sensor_id;sensor_type;location;lat;lon;timestamp;temperature;humidity
41876;DHT22;27555;50.808;4.402;2023-06-26T00:01:57;24.30;92.10
41876;DHT22;27555;50.808;4.402;2023-06-26T00:04:23;24.10;92.10
41876;DHT22;27555;50.808;4.402;2023-06-26T00:06:48;24.00;92.20
41876;DHT22;27555;50.808;4.402;2023-06-26T00:09:14;24.00;92.00
41876;DHT22;27555;50.808;4.402;2023-06-26T00:11:39;23.70;92.30
41876;DHT22;27555;50.808;4.402;2023-06-26T00:14:05;24.00;91.80
41876;DHT22;27555;50.808;4.402;2023-06-26T00:16:31;23.70;91.90
41876;DHT22;27555;50.808;4.402;2023-06-26T00:18:57;23.70;92.10
41876;DHT22;27555;50.808;4.402;2023-06-26T00:21:24;23.70;91.70
41876;DHT22;27555;50.808;4.402;2023-06-26T00:23:51;23.60;91.80
41876;DHT22;27555;50.808;4.402;2023-06-26T00:26:16;23.60;91.80
41876;DHT22;27555;50.808;4.402;2023-06-26T00:28:42;23.50;91.90
41876;DHT22;27555;50.808;4.402;2023-06-26T00:31:08;23.30;92.00
41876;DHT22;27555;50.808;4.402;2023-06-26T00:33:33;23.30;92.10
41876;DHT22;27555;50.808;4.402;2023-06-26T00:35:59;23.30;92.00
41876;DHT22;27555;50.808;4.402;2023-06-26T00:38:25;23.10;92.10
41876;DHT22;27555;50.808;4.402;2023-06-26T00:40:54;23.20;92.00
41876;DHT22;27555;50.808;4.402;2023-06-26T00:43:20;23.30;91.70
41876;DHT22;27555;50.808;4.402;2023-06-26T00:45:45;23.20;91.90
41876;DHT22;27555;50.808;4.402;2023-06-26T00:48:11;23.00;91.80
41876;DHT22;27555;50.808;4.402;2023-06-26T00:50:37;22.90;91.90
41876;DHT22;27555;50.808;4.402;2023-06-26T00:53:03;22.70;91.60
41876;DHT22;27555;50.808;4.402;2023-06-26T00:55:30;22.70;91.50
41876;DHT22;27555;50.808;4.402;2023-06-26T00:57:56;22.70;91.30
41876;DHT22;27555;50.808;4.402;2023-06-26T01:00:22;22.70;91.30
41876;DHT22;27555;50.808;4.402;2023-06-26T01:02:48;22.70;91.10
41876;DHT22;27555;50.808;4.402;2023-06-26T01:05:14;22.50;91.40
41876;DHT22;27555;50.808;4.402;2023-06-26T01:07:49;22.40;91.50
41876;DHT22;27555;50.808;4.402;2023-06-26T01:10:15;22.30;91.70
41876;DHT22;27555;50.808;4.402;2023-06-26T01:12:41;22.30;91.70
41876;DHT22;27555;50.808;4.402;2023-06-26T01:15:07;22.30;92.00
41876;DHT22;27555;50.808;4.402;2023-06-26T01:17:33;22.30;92.00
41876;DHT22;27555;50.808;4.402;2023-06-26T01:20:00;22.30;92.20
41876;DHT22;27555;50.808;4.402;2023-06-26T01:25:38;22.30;92.60
41876;DHT22;27555;50.808;4.402;2023-06-26T01:28:06;22.30;92.70
41876;DHT22;27555;50.808;4.402;2023-06-26T01:30:32;22.20;93.00
41876;DHT22;27555;50.808;4.402;2023-06-26T01:33:00;22.00;93.20
41876;DHT22;27555;50.808;4.402;2023-06-26T01:35:26;21.80;93.70
41876;DHT22;27555;50.808;4.402;2023-06-26T01:37:52;21.90;93.70
41876;DHT22;27555;50.808;4.402;2023-06-26T01:40:18;22.00;93.60
41876;DHT22;27555;50.808;4.402;2023-06-26T01:42:44;22.10;93.50
41876;DHT22;27555;50.808;4.402;2023-06-26T01:45:24;22.20;93.60
41876;DHT22;27555;50.808;4.402;2023-06-26T01:47:52;22.00;93.70
41876;DHT22;27555;50.808;4.402;2023-06-26T01:50:28;21.80;94.10
41876;DHT22;27555;50.808;4.402;2023-06-26T01:53:02;22.00;94.10
41876;DHT22;27555;50.808;4.402;2023-06-26T01:55:40;21.90;94.20
41876;DHT22;27555;50.808;4.402;2023-06-26T01:58:07;22.00;94.30
41876;DHT22;27555;50.808;4.402;2023-06-26T02:00:34;21.80;94.70
41876;DHT22;27555;50.808;4.402;2023-06-26T02:03:01;21.50;95.30
41876;DHT22;27555;50.808;4.402;2023-06-26T02:05:26;21.40;95.70
41876;DHT22;27555;50.808;4.402;2023-06-26T02:07:52;21.70;95.40
41876;DHT22;27555;50.808;4.402;2023-06-26T02:10:18;21.60;95.70
41876;DHT22;27555;50.808;4.402;2023-06-26T02:12:43;21.60;95.60
41876;DHT22;27555;50.808;4.402;2023-06-26T02:15:09;21.60;95.90
41876;DHT22;27555;50.808;4.402;2023-06-26T02:17:35;21.50;96.10
41876;DHT22;27555;50.808;4.402;2023-06-26T02:20:02;21.50;96.20
41876;DHT22;27555;50.808;4.402;2023-06-26T02:22:28;21.10;97.00
41876;DHT22;27555;50.808;4.402;2023-06-26T02:24:54;21.20;97.10
41876;DHT22;27555;50.808;4.402;2023-06-26T02:27:20;21.20;97.40
41876;DHT22;27555;50.808;4.402;2023-06-26T02:29:45;21.20;97.40
41876;DHT22;27555;50.808;4.402;2023-06-26T02:32:11;21.00;98.00
41876;DHT22;27555;50.808;4.402;2023-06-26T02:34:37;21.20;97.90
41876;DHT22;27555;50.808;4.402;2023-06-26T02:37:02;21.10;98.20
41876;DHT22;27555;50.808;4.402;2023-06-26T02:39:28;21.30;98.20
41876;DHT22;27555;50.808;4.402;2023-06-26T02:41:54;21.10;98.50
41876;DHT22;27555;50.808;4.402;2023-06-26T02:44:19;21.10;98.80
41876;DHT22;27555;50.808;4.402;2023-06-26T02:46:46;21.30;98.60
41876;DHT22;27555;50.808;4.402;2023-06-26T02:49:12;21.10;99.10
41876;DHT22;27555;50.808;4.402;2023-06-26T02:51:38;20.90;99.80
41876;DHT22;27555;50.808;4.402;2023-06-26T02:54:03;20.90;99.90
41876;DHT22;27555;50.808;4.402;2023-06-26T02:56:29;20.90;99.90
41876;DHT22;27555;50.808;4.402;2023-06-26T02:58:55;20.90;99.90
41876;DHT22;27555;50.808;4.402;2023-06-26T03:01:21;20.90;99.90
41876;DHT22;27555;50.808;4.402;2023-06-26T03:03:47;20.60;99.90
41876;DHT22;27555;50.808;4.402;2023-06-26T03:06:13;20.60;99.90
41876;DHT22;27555;50.808;4.402;2023-06-26T03:08:39;20.70;99.90
41876;DHT22;27555;50.808;4.402;2023-06-26T03:11:06;20.80;99.90
41876;DHT22;27555;50.808;4.402;2023-06-26T03:13:35;20.80;99.90
41876;DHT22;27555;50.808;4.402;2023-06-26T03:16:02;20.90;99.90
41876;DHT22;27555;50.808;4.402;2023-06-26T03:18:27;20.80;99.90
41876;DHT22;27555;50.808;4.402;2023-06-26T03:20:54;20.90;99.90
41876;DHT22;27555;50.808;4.402;2023-06-26T03:23:20;20.80;99.90
41876;DHT22;27555;50.808;4.402;2023-06-26T03:25:47;20.80;99.90
41876;DHT22;27555;50.808;4.402;2023-06-26T03:28:12;20.90;99.90
41876;DHT22;27555;50.808;4.402;2023-06-26T03:30:38;20.90;99.90
41876;DHT22;27555;50.808;4.402;2023-06-26T03:33:04;20.60;99.90
41876;DHT22;27555;50.808;4.402;2023-06-26T03:35:29;20.30;99.90
41876;DHT22;27555;50.808;4.402;2023-06-26T03:37:55;20.10;99.90
41876;DHT22;27555;50.808;4.402;2023-06-26T03:40:20;20.20;99.90
41876;DHT22;27555;50.808;4.402;2023-06-26T03:42:46;20.10;99.90
41876;DHT22;27555;50.808;4.402;2023-06-26T03:45:12;20.30;99.90
41876;DHT22;27555;50.808;4.402;2023-06-26T03:47:37;20.30;99.90
41876;DHT22;27555;50.808;4.402;2023-06-26T03:50:03;20.20;99.90
41876;DHT22;27555;50.808;4.402;2023-06-26T03:52:29;20.20;99.90
41876;DHT22;27555;50.808;4.402;2023-06-26T03:54:57;20.10;99.90
41876;DHT22;27555;50.808;4.402;2023-06-26T03:57:22;20.30;99.90
41876;DHT22;27555;50.808;4.402;2023-06-26T03:59:48;20.10;99.90
41876;DHT22;27555;50.808;4.402;2023-06-26T04:02:14;20.30;99.90
41876;DHT22;27555;50.808;4.402;2023-06-26T04:04:39;20.10;99.90
41876;DHT22;27555;50.808;4.402;2023-06-26T04:07:05;20.10;99.90
41876;DHT22;27555;50.808;4.402;2023-06-26T04:09:30;20.00;99.90
41876;DHT22;27555;50.808;4.402;2023-06-26T04:11:56;20.00;99.90
41876;DHT22;27555;50.808;4.402;2023-06-26T04:14:22;19.90;99.90
41876;DHT22;27555;50.808;4.402;2023-06-26T04:16:47;19.90;99.90
41876;DHT22;27555;50.808;4.402;2023-06-26T04:19:13;19.70;99.90
41876;DHT22;27555;50.808;4.402;2023-06-26T04:21:38;19.80;99.90
41876;DHT22;27555;50.808;4.402;2023-06-26T04:24:05;20.00;99.90
41876;DHT22;27555;50.808;4.402;2023-06-26T04:26:30;20.40;99.90
41876;DHT22;27555;50.808;4.402;2023-06-26T04:28:56;20.40;99.90
41876;DHT22;27555;50.808;4.402;2023-06-26T04:31:22;20.30;99.90
41876;DHT22;27555;50.808;4.402;2023-06-26T04:33:48;20.20;99.90
41876;DHT22;27555;50.808;4.402;2023-06-26T04:36:19;20.00;99.90
41876;DHT22;27555;50.808;4.402;2023-06-26T04:38:44;20.00;99.90
41876;DHT22;27555;50.808;4.402;2023-06-26T04:41:10;20.00;99.90
41876;DHT22;27555;50.808;4.402;2023-06-26T04:43:36;20.10;99.90
41876;DHT22;27555;50.808;4.402;2023-06-26T04:46:05;20.20;99.90
41876;DHT22;27555;50.808;4.402;2023-06-26T04:48:31;20.20;99.90
41876;DHT22;27555;50.808;4.402;2023-06-26T04:50:57;20.20;99.90
41876;DHT22;27555;50.808;4.402;2023-06-26T04:53:24;20.20;99.90
41876;DHT22;27555;50.808;4.402;2023-06-26T04:55:53;20.20;99.90
41876;DHT22;27555;50.808;4.402;2023-06-26T04:58:19;20.10;99.90
41876;DHT22;27555;50.808;4.402;2023-06-26T05:00:45;19.80;99.90
41876;DHT22;27555;50.808;4.402;2023-06-26T05:03:12;19.60;99.90
41876;DHT22;27555;50.808;4.402;2023-06-26T05:05:38;19.40;99.90
41876;DHT22;27555;50.808;4.402;2023-06-26T05:08:31;19.70;99.90
41876;DHT22;27555;50.808;4.402;2023-06-26T05:10:57;19.80;99.90
41876;DHT22;27555;50.808;4.402;2023-06-26T05:13:26;19.90;99.90
41876;DHT22;27555;50.808;4.402;2023-06-26T05:15:53;20.10;99.90
41876;DHT22;27555;50.808;4.402;2023-06-26T05:18:19;20.00;99.90
41876;DHT22;27555;50.808;4.402;2023-06-26T05:20:45;19.80;99.90
41876;DHT22;27555;50.808;4.402;2023-06-26T05:23:11;19.80;99.90
41876;DHT22;27555;50.808;4.402;2023-06-26T05:25:38;19.70;99.90
41876;DHT22;27555;50.808;4.402;2023-06-26T05:28:04;19.70;99.90
41876;DHT22;27555;50.808;4.402;2023-06-26T05:30:35;19.90;99.90
41876;DHT22;27555;50.808;4.402;2023-06-26T05:33:02;19.90;99.90
41876;DHT22;27555;50.808;4.402;2023-06-26T05:35:29;19.90;99.90
41876;DHT22;27555;50.808;4.402;2023-06-26T05:37:55;19.90;99.90
41876;DHT22;27555;50.808;4.402;2023-06-26T05:40:21;19.60;99.90
41876;DHT22;27555;50.808;4.402;2023-06-26T05:42:48;19.70;99.90
41876;DHT22;27555;50.808;4.402;2023-06-26T05:45:14;19.70;99.90
41876;DHT22;27555;50.808;4.402;2023-06-26T05:47:40;19.70;99.90
41876;DHT22;27555;50.808;4.402;2023-06-26T05:50:08;19.90;99.90
41876;DHT22;27555;50.808;4.402;2023-06-26T05:52:35;20.00;99.90
41876;DHT22;27555;50.808;4.402;2023-06-26T05:55:01;20.10;99.90
41876;DHT22;27555;50.808;4.402;2023-06-26T05:57:29;20.00;99.90
41876;DHT22;27555;50.808;4.402;2023-06-26T05:59:55;20.10;99.90
41876;DHT22;27555;50.808;4.402;2023-06-26T06:02:21;19.80;99.90
41876;DHT22;27555;50.808;4.402;2023-06-26T06:04:47;20.00;99.90
41876;DHT22;27555;50.808;4.402;2023-06-26T06:07:13;20.00;99.90
41876;DHT22;27555;50.808;4.402;2023-06-26T06:09:39;20.50;99.90
41876;DHT22;27555;50.808;4.402;2023-06-26T06:12:06;20.60;99.90
41876;DHT22;27555;50.808;4.402;2023-06-26T06:14:32;20.70;99.80
41876;DHT22;27555;50.808;4.402;2023-06-26T06:16:58;20.80;99.30
41876;DHT22;27555;50.808;4.402;2023-06-26T06:19:24;20.60;99.20
41876;DHT22;27555;50.808;4.402;2023-06-26T06:21:49;20.40;99.80
41876;DHT22;27555;50.808;4.402;2023-06-26T06:24:15;20.40;99.90
41876;DHT22;27555;50.808;4.402;2023-06-26T06:26:41;20.40;99.90
41876;DHT22;27555;50.808;4.402;2023-06-26T06:29:07;20.70;99.00
41876;DHT22;27555;50.808;4.402;2023-06-26T06:31:32;20.40;99.90
41876;DHT22;27555;50.808;4.402;2023-06-26T06:33:58;20.40;99.60
41876;DHT22;27555;50.808;4.402;2023-06-26T06:36:24;20.60;99.10
41876;DHT22;27555;50.808;4.402;2023-06-26T06:38:49;20.80;98.70
41876;DHT22;27555;50.808;4.402;2023-06-26T06:41:15;21.70;97.50
41876;DHT22;27555;50.808;4.402;2023-06-26T06:43:41;22.50;95.90
41876;DHT22;27555;50.808;4.402;2023-06-26T06:46:08;23.50;94.30
41876;DHT22;27555;50.808;4.402;2023-06-26T06:48:34;24.40;92.80
41876;DHT22;27555;50.808;4.402;2023-06-26T06:50:59;25.10;91.70
41876;DHT22;27555;50.808;4.402;2023-06-26T06:53:25;26.20;90.20
41876;DHT22;27555;50.808;4.402;2023-06-26T06:55:50;26.30;88.20
41876;DHT22;27555;50.808;4.402;2023-06-26T06:58:16;26.50;87.40
41876;DHT22;27555;50.808;4.402;2023-06-26T07:00:42;26.10;87.60
41876;DHT22;27555;50.808;4.402;2023-06-26T07:03:08;26.40;87.00
41876;DHT22;27555;50.808;4.402;2023-06-26T07:05:34;26.70;86.90
41876;DHT22;27555;50.808;4.402;2023-06-26T07:08:00;27.00;85.50
41876;DHT22;27555;50.808;4.402;2023-06-26T07:10:25;27.30;84.80
41876;DHT22;27555;50.808;4.402;2023-06-26T07:12:51;26.80;83.90
41876;DHT22;27555;50.808;4.402;2023-06-26T07:15:16;26.30;85.20
41876;DHT22;27555;50.808;4.402;2023-06-26T07:17:42;26.90;84.40
41876;DHT22;27555;50.808;4.402;2023-06-26T07:20:08;27.50;82.50
41876;DHT22;27555;50.808;4.402;2023-06-26T07:22:37;27.30;83.10
41876;DHT22;27555;50.808;4.402;2023-06-26T07:25:02;27.50;81.80
41876;DHT22;27555;50.808;4.402;2023-06-26T07:27:29;28.00;81.50
41876;DHT22;27555;50.808;4.402;2023-06-26T07:29:55;28.10;80.70
41876;DHT22;27555;50.808;4.402;2023-06-26T07:32:20;27.80;80.60
41876;DHT22;27555;50.808;4.402;2023-06-26T07:34:46;27.40;81.20
41876;DHT22;27555;50.808;4.402;2023-06-26T07:37:12;27.20;82.50
41876;DHT22;27555;50.808;4.402;2023-06-26T07:39:37;27.40;81.80
41876;DHT22;27555;50.808;4.402;2023-06-26T07:42:03;27.70;81.30
41876;DHT22;27555;50.808;4.402;2023-06-26T07:44:29;29.00;80.00
41876;DHT22;27555;50.808;4.402;2023-06-26T07:46:54;29.10;79.40
41876;DHT22;27555;50.808;4.402;2023-06-26T07:49:20;28.30;79.20
41876;DHT22;27555;50.808;4.402;2023-06-26T07:51:46;28.70;79.00
41876;DHT22;27555;50.808;4.402;2023-06-26T07:54:11;28.70;79.50
41876;DHT22;27555;50.808;4.402;2023-06-26T07:57:00;28.90;79.40
41876;DHT22;27555;50.808;4.402;2023-06-26T07:59:27;29.50;78.50
41876;DHT22;27555;50.808;4.402;2023-06-26T08:01:54;29.10;77.50
41876;DHT22;27555;50.808;4.402;2023-06-26T08:04:22;28.40;79.00
41876;DHT22;27555;50.808;4.402;2023-06-26T08:06:49;29.10;78.20
41876;DHT22;27555;50.808;4.402;2023-06-26T08:09:15;29.20;78.00
41876;DHT22;27555;50.808;4.402;2023-06-26T08:11:41;29.20;77.90
41876;DHT22;27555;50.808;4.402;2023-06-26T08:14:07;29.70;77.60
41876;DHT22;27555;50.808;4.402;2023-06-26T08:16:32;30.00;77.40
41876;DHT22;27555;50.808;4.402;2023-06-26T08:18:58;29.70;76.60
41876;DHT22;27555;50.808;4.402;2023-06-26T08:21:23;30.20;75.80
41876;DHT22;27555;50.808;4.402;2023-06-26T08:23:49;29.60;77.10
41876;DHT22;27555;50.808;4.402;2023-06-26T08:26:14;29.90;76.00
41876;DHT22;27555;50.808;4.402;2023-06-26T08:28:40;30.80;74.70
41876;DHT22;27555;50.808;4.402;2023-06-26T08:31:06;30.40;75.40
41876;DHT22;27555;50.808;4.402;2023-06-26T08:33:31;31.00;75.20
41876;DHT22;27555;50.808;4.402;2023-06-26T08:35:57;31.50;73.00
41876;DHT22;27555;50.808;4.402;2023-06-26T08:38:22;30.70;73.40
41876;DHT22;27555;50.808;4.402;2023-06-26T08:40:48;30.40;73.80
41876;DHT22;27555;50.808;4.402;2023-06-26T08:43:15;30.20;74.00
41876;DHT22;27555;50.808;4.402;2023-06-26T08:45:41;29.50;75.10
41876;DHT22;27555;50.808;4.402;2023-06-26T08:48:08;30.30;74.50
41876;DHT22;27555;50.808;4.402;2023-06-26T08:50:35;31.10;73.90
41876;DHT22;27555;50.808;4.402;2023-06-26T08:53:09;30.50;73.70
41876;DHT22;27555;50.808;4.402;2023-06-26T08:55:41;30.10;74.70
41876;DHT22;27555;50.808;4.402;2023-06-26T08:58:06;30.70;73.80
41876;DHT22;27555;50.808;4.402;2023-06-26T09:00:32;30.70;73.70
41876;DHT22;27555;50.808;4.402;2023-06-26T09:02:59;31.50;72.80
41876;DHT22;27555;50.808;4.402;2023-06-26T09:05:26;31.40;72.60
41876;DHT22;27555;50.808;4.402;2023-06-26T09:07:52;30.70;72.70
41876;DHT22;27555;50.808;4.402;2023-06-26T09:10:21;31.00;72.20
41876;DHT22;27555;50.808;4.402;2023-06-26T09:12:47;31.90;71.50
41876;DHT22;27555;50.808;4.402;2023-06-26T09:15:19;31.10;70.70
41876;DHT22;27555;50.808;4.402;2023-06-26T09:17:45;31.20;70.90
41876;DHT22;27555;50.808;4.402;2023-06-26T09:20:12;31.50;70.10
41876;DHT22;27555;50.808;4.402;2023-06-26T09:22:41;32.10;69.70
41876;DHT22;27555;50.808;4.402;2023-06-26T09:25:08;32.00;70.30
41876;DHT22;27555;50.808;4.402;2023-06-26T09:27:35;31.90;69.60
41876;DHT22;27555;50.808;4.402;2023-06-26T09:30:04;32.00;69.20
41876;DHT22;27555;50.808;4.402;2023-06-26T09:32:34;31.80;69.00
41876;DHT22;27555;50.808;4.402;2023-06-26T09:35:02;32.00;68.40
41876;DHT22;27555;50.808;4.402;2023-06-26T09:37:28;31.50;70.10
41876;DHT22;27555;50.808;4.402;2023-06-26T09:39:54;31.40;69.80
41876;DHT22;27555;50.808;4.402;2023-06-26T09:42:19;31.80;69.00
41876;DHT22;27555;50.808;4.402;2023-06-26T09:44:46;31.20;69.10
41876;DHT22;27555;50.808;4.402;2023-06-26T09:47:13;31.00;69.80
41876;DHT22;27555;50.808;4.402;2023-06-26T09:49:41;31.20;69.20
41876;DHT22;27555;50.808;4.402;2023-06-26T09:52:08;31.50;68.90
41876;DHT22;27555;50.808;4.402;2023-06-26T09:54:34;31.90;68.50
41876;DHT22;27555;50.808;4.402;2023-06-26T09:57:08;31.40;67.30
41876;DHT22;27555;50.808;4.402;2023-06-26T09:59:34;31.30;68.90
41876;DHT22;27555;50.808;4.402;2023-06-26T10:02:00;31.20;69.30
41876;DHT22;27555;50.808;4.402;2023-06-26T10:04:26;30.20;69.00
41876;DHT22;27555;50.808;4.402;2023-06-26T10:06:54;31.30;68.60
41876;DHT22;27555;50.808;4.402;2023-06-26T10:09:22;32.30;67.80
41876;DHT22;27555;50.808;4.402;2023-06-26T10:11:57;31.20;67.30
41876;DHT22;27555;50.808;4.402;2023-06-26T10:14:36;30.90;66.50
41876;DHT22;27555;50.808;4.402;2023-06-26T10:17:06;30.40;67.60
41876;DHT22;27555;50.808;4.402;2023-06-26T10:19:33;29.80;68.40
41876;DHT22;27555;50.808;4.402;2023-06-26T10:22:02;29.10;66.90
41876;DHT22;27555;50.808;4.402;2023-06-26T10:24:31;27.80;69.20
41876;DHT22;27555;50.808;4.402;2023-06-26T10:27:04;27.60;70.00
41876;DHT22;27555;50.808;4.402;2023-06-26T10:29:34;28.20;70.00
41876;DHT22;27555;50.808;4.402;2023-06-26T10:32:03;29.60;68.70
41876;DHT22;27555;50.808;4.402;2023-06-26T10:34:29;29.50;69.10
41876;DHT22;27555;50.808;4.402;2023-06-26T10:37:01;30.00;68.40
41876;DHT22;27555;50.808;4.402;2023-06-26T10:42:11;30.20;68.70
41876;DHT22;27555;50.808;4.402;2023-06-26T10:44:41;30.20;68.60
41876;DHT22;27555;50.808;4.402;2023-06-26T10:47:07;29.70;69.00
41876;DHT22;27555;50.808;4.402;2023-06-26T10:49:35;29.50;69.40
41876;DHT22;27555;50.808;4.402;2023-06-26T10:52:02;30.00;69.10
41876;DHT22;27555;50.808;4.402;2023-06-26T10:54:32;30.00;68.40
41876;DHT22;27555;50.808;4.402;2023-06-26T10:56:58;29.50;69.40
41876;DHT22;27555;50.808;4.402;2023-06-26T10:59:26;30.00;68.70
41876;DHT22;27555;50.808;4.402;2023-06-26T11:07:21;28.50;70.10
41876;DHT22;27555;50.808;4.402;2023-06-26T11:10:16;29.10;69.40
41876;DHT22;27555;50.808;4.402;2023-06-26T11:12:45;29.30;68.50
41876;DHT22;27555;50.808;4.402;2023-06-26T11:15:15;29.90;67.00
41876;DHT22;27555;50.808;4.402;2023-06-26T11:17:42;30.10;67.30
41876;DHT22;27555;50.808;4.402;2023-06-26T11:20:12;30.70;67.40
41876;DHT22;27555;50.808;4.402;2023-06-26T11:22:39;31.40;66.30
41876;DHT22;27555;50.808;4.402;2023-06-26T11:25:06;30.80;65.90
41876;DHT22;27555;50.808;4.402;2023-06-26T11:27:40;29.90;66.20
41876;DHT22;27555;50.808;4.402;2023-06-26T11:30:07;29.30;67.20
41876;DHT22;27555;50.808;4.402;2023-06-26T11:32:34;28.80;67.70
41876;DHT22;27555;50.808;4.402;2023-06-26T11:34:59;28.40;68.80
41876;DHT22;27555;50.808;4.402;2023-06-26T11:37:25;28.10;69.30
41876;DHT22;27555;50.808;4.402;2023-06-26T11:39:51;28.40;69.30
41876;DHT22;27555;50.808;4.402;2023-06-26T11:42:20;29.40;68.40
41876;DHT22;27555;50.808;4.402;2023-06-26T11:44:46;29.20;68.20
41876;DHT22;27555;50.808;4.402;2023-06-26T11:47:21;28.50;68.80
41876;DHT22;27555;50.808;4.402;2023-06-26T11:49:49;30.00;67.70
41876;DHT22;27555;50.808;4.402;2023-06-26T11:52:15;30.60;67.40
41876;DHT22;27555;50.808;4.402;2023-06-26T11:54:42;29.50;67.40
41876;DHT22;27555;50.808;4.402;2023-06-26T11:57:08;29.00;67.40
41876;DHT22;27555;50.808;4.402;2023-06-26T11:59:40;28.30;68.10
41876;DHT22;27555;50.808;4.402;2023-06-26T12:02:07;27.90;68.70
41876;DHT22;27555;50.808;4.402;2023-06-26T12:04:39;27.70;69.40
41876;DHT22;27555;50.808;4.402;2023-06-26T12:07:06;27.40;70.20
41876;DHT22;27555;50.808;4.402;2023-06-26T12:09:37;27.30;69.60
41876;DHT22;27555;50.808;4.402;2023-06-26T12:12:04;26.70;70.70
41876;DHT22;27555;50.808;4.402;2023-06-26T12:14:30;27.00;69.70
41876;DHT22;27555;50.808;4.402;2023-06-26T12:17:04;26.80;69.80
41876;DHT22;27555;50.808;4.402;2023-06-26T12:19:30;26.90;70.10
41876;DHT22;27555;50.808;4.402;2023-06-26T12:21:55;27.00;68.50
41876;DHT22;27555;50.808;4.402;2023-06-26T12:24:23;27.00;66.80
41876;DHT22;27555;50.808;4.402;2023-06-26T12:26:53;27.00;67.80
41876;DHT22;27555;50.808;4.402;2023-06-26T12:29:20;26.80;68.30
41876;DHT22;27555;50.808;4.402;2023-06-26T12:31:51;26.50;68.10
41876;DHT22;27555;50.808;4.402;2023-06-26T12:34:19;26.70;68.70
41876;DHT22;27555;50.808;4.402;2023-06-26T12:36:47;26.70;69.20
41876;DHT22;27555;50.808;4.402;2023-06-26T12:39:24;26.90;69.30
41876;DHT22;27555;50.808;4.402;2023-06-26T12:41:54;26.90;68.50
41876;DHT22;27555;50.808;4.402;2023-06-26T12:44:30;26.80;69.30
41876;DHT22;27555;50.808;4.402;2023-06-26T12:47:02;26.90;69.40
41876;DHT22;27555;50.808;4.402;2023-06-26T12:49:39;27.10;69.70
41876;DHT22;27555;50.808;4.402;2023-06-26T12:52:07;26.90;68.30
41876;DHT22;27555;50.808;4.402;2023-06-26T12:54:37;26.60;68.30
41876;DHT22;27555;50.808;4.402;2023-06-26T12:57:03;26.70;68.80
41876;DHT22;27555;50.808;4.402;2023-06-26T12:59:30;27.10;67.90
41876;DHT22;27555;50.808;4.402;2023-06-26T13:01:57;27.20;66.50
41876;DHT22;27555;50.808;4.402;2023-06-26T13:04:22;26.90;67.70
41876;DHT22;27555;50.808;4.402;2023-06-26T13:06:48;26.80;68.10
41876;DHT22;27555;50.808;4.402;2023-06-26T13:09:13;27.00;68.60
41876;DHT22;27555;50.808;4.402;2023-06-26T13:11:39;27.50;68.00
41876;DHT22;27555;50.808;4.402;2023-06-26T13:14:05;27.40;68.70
41876;DHT22;27555;50.808;4.402;2023-06-26T13:16:31;27.50;68.10
41876;DHT22;27555;50.808;4.402;2023-06-26T13:18:58;27.00;68.20
41876;DHT22;27555;50.808;4.402;2023-06-26T13:21:24;27.10;68.00
41876;DHT22;27555;50.808;4.402;2023-06-26T13:23:50;26.80;68.00
41876;DHT22;27555;50.808;4.402;2023-06-26T13:26:15;26.80;68.70
41876;DHT22;27555;50.808;4.402;2023-06-26T13:28:41;26.60;69.50
41876;DHT22;27555;50.808;4.402;2023-06-26T13:31:07;26.00;70.40
41876;DHT22;27555;50.808;4.402;2023-06-26T13:33:32;25.80;70.70
41876;DHT22;27555;50.808;4.402;2023-06-26T13:35:58;26.10;71.00
41876;DHT22;27555;50.808;4.402;2023-06-26T13:38:24;25.90;70.60
41876;DHT22;27555;50.808;4.402;2023-06-26T13:40:52;25.90;70.60
41876;DHT22;27555;50.808;4.402;2023-06-26T13:43:18;26.20;69.60
41876;DHT22;27555;50.808;4.402;2023-06-26T13:45:44;26.60;68.90
41876;DHT22;27555;50.808;4.402;2023-06-26T13:48:09;26.70;69.00
41876;DHT22;27555;50.808;4.402;2023-06-26T13:50:36;26.60;70.30
41876;DHT22;27555;50.808;4.402;2023-06-26T13:53:02;26.90;70.40
41876;DHT22;27555;50.808;4.402;2023-06-26T13:55:28;26.90;70.70
41876;DHT22;27555;50.808;4.402;2023-06-26T13:57:54;27.10;69.80
41876;DHT22;27555;50.808;4.402;2023-06-26T14:00:21;27.10;70.30
41876;DHT22;27555;50.808;4.402;2023-06-26T14:02:50;26.60;70.70
41876;DHT22;27555;50.808;4.402;2023-06-26T14:05:16;26.30;70.10
41876;DHT22;27555;50.808;4.402;2023-06-26T14:07:44;26.30;70.20
41876;DHT22;27555;50.808;4.402;2023-06-26T14:10:10;26.60;69.70
41876;DHT22;27555;50.808;4.402;2023-06-26T14:12:35;26.10;69.60
41876;DHT22;27555;50.808;4.402;2023-06-26T14:15:01;26.20;70.30
41876;DHT22;27555;50.808;4.402;2023-06-26T14:17:27;26.00;70.70
41876;DHT22;27555;50.808;4.402;2023-06-26T14:19:53;26.20;71.20
41876;DHT22;27555;50.808;4.402;2023-06-26T14:22:18;26.70;70.00
41876;DHT22;27555;50.808;4.402;2023-06-26T14:24:44;26.90;69.90
41876;DHT22;27555;50.808;4.402;2023-06-26T14:27:10;26.90;68.40
41876;DHT22;27555;50.808;4.402;2023-06-26T14:29:36;26.90;68.20
41876;DHT22;27555;50.808;4.402;2023-06-26T14:32:02;26.80;68.40
41876;DHT22;27555;50.808;4.402;2023-06-26T14:34:28;26.60;68.00
41876;DHT22;27555;50.808;4.402;2023-06-26T14:36:55;26.50;68.20
41876;DHT22;27555;50.808;4.402;2023-06-26T14:39:20;26.70;68.20
41876;DHT22;27555;50.808;4.402;2023-06-26T14:41:46;26.30;68.40
41876;DHT22;27555;50.808;4.402;2023-06-26T14:44:13;26.00;68.00
41876;DHT22;27555;50.808;4.402;2023-06-26T14:46:39;26.20;68.20
41876;DHT22;27555;50.808;4.402;2023-06-26T14:49:05;26.50;67.90
41876;DHT22;27555;50.808;4.402;2023-06-26T14:51:30;26.20;66.90
41876;DHT22;27555;50.808;4.402;2023-06-26T14:53:56;25.80;67.60
41876;DHT22;27555;50.808;4.402;2023-06-26T14:56:21;25.90;68.20
41876;DHT22;27555;50.808;4.402;2023-06-26T14:58:47;26.10;68.50
41876;DHT22;27555;50.808;4.402;2023-06-26T15:01:13;26.30;68.40
41876;DHT22;27555;50.808;4.402;2023-06-26T15:03:42;26.60;68.20
41876;DHT22;27555;50.808;4.402;2023-06-26T15:06:07;25.90;68.90
41876;DHT22;27555;50.808;4.402;2023-06-26T15:08:34;25.50;70.00
41876;DHT22;27555;50.808;4.402;2023-06-26T15:11:01;25.80;69.80
41876;DHT22;27555;50.808;4.402;2023-06-26T15:13:28;25.70;70.10
41876;DHT22;27555;50.808;4.402;2023-06-26T15:15:53;25.80;70.50
41876;DHT22;27555;50.808;4.402;2023-06-26T15:18:19;25.60;71.10
41876;DHT22;27555;50.808;4.402;2023-06-26T15:20:44;25.90;71.10
41876;DHT22;27555;50.808;4.402;2023-06-26T15:23:10;26.10;70.80
41876;DHT22;27555;50.808;4.402;2023-06-26T15:25:36;25.60;71.40
41876;DHT22;27555;50.808;4.402;2023-06-26T15:28:05;25.40;71.90
41876;DHT22;27555;50.808;4.402;2023-06-26T15:30:31;25.60;72.10
41876;DHT22;27555;50.808;4.402;2023-06-26T15:32:57;25.50;71.60
41876;DHT22;27555;50.808;4.402;2023-06-26T15:35:22;25.70;71.50
41876;DHT22;27555;50.808;4.402;2023-06-26T15:37:48;25.70;71.60
41876;DHT22;27555;50.808;4.402;2023-06-26T15:40:15;25.80;71.40